createdAt,value
2023-02-13T00:00:20.329Z,15.07
2023-02-13T00:02:47.015Z,12.52
2023-02-13T00:05:13.495Z,12.73
2023-02-13T00:07:40.113Z,13.27
2023-02-13T00:10:07.617Z,12.20
2023-02-13T00:12:34.154Z,11.90
2023-02-13T00:15:00.582Z,11.32
2023-02-13T00:17:27.472Z,12.35
2023-02-13T00:19:53.886Z,12.52
2023-02-13T00:22:20.307Z,10.95
2023-02-13T00:24:46.851Z,10.00
2023-02-13T00:27:13.534Z,10.23
2023-02-13T00:29:39.943Z,12.48
2023-02-13T00:32:06.488Z,10.55
2023-02-13T00:34:32.990Z,9.90
2023-02-13T00:37:01.151Z,10.90
2023-02-13T00:39:27.610Z,11.18
2023-02-13T00:41:54.076Z,10.52
2023-02-13T00:44:20.459Z,11.88
2023-02-13T00:46:46.985Z,10.77
2023-02-13T00:49:13.431Z,12.45
2023-02-13T00:51:39.876Z,12.68
2023-02-13T00:54:06.314Z,10.55
2023-02-13T00:56:32.736Z,11.18
2023-02-13T00:58:59.548Z,13.05
2023-02-13T01:01:26.246Z,11.80
2023-02-13T01:03:52.765Z,11.63
2023-02-13T01:06:20.962Z,13.48
2023-02-13T01:08:47.426Z,10.27
2023-02-13T01:11:15.544Z,12.63
2023-02-13T01:13:43.710Z,10.45
2023-02-13T01:16:10.687Z,11.05
2023-02-13T01:18:37.161Z,9.88
2023-02-13T01:21:09.251Z,10.32
2023-02-13T01:23:37.606Z,10.70
2023-02-13T01:26:06.713Z,10.00
2023-02-13T01:28:33.802Z,10.90
2023-02-13T01:31:01.422Z,10.45
2023-02-13T01:33:29.251Z,11.30
2023-02-13T01:35:55.929Z,11.90
2023-02-13T01:38:22.364Z,11.15
2023-02-13T01:40:51.606Z,13.02
2023-02-13T01:43:18.744Z,12.77
2023-02-13T01:45:48.790Z,13.57
2023-02-13T01:48:21.396Z,11.88
2023-02-13T01:51:02.801Z,13.52
2023-02-13T01:53:35.647Z,11.40
2023-02-13T01:56:23.537Z,11.18
2023-02-13T01:58:54.453Z,14.65
2023-02-13T02:01:23.249Z,13.05
2023-02-13T02:03:57.589Z,13.65
2023-02-13T02:06:28.608Z,12.18
2023-02-13T02:09:02.149Z,13.30
2023-02-13T02:11:52.960Z,13.07
2023-02-13T02:14:20.316Z,13.38
2023-02-13T02:16:46.854Z,13.23
2023-02-13T02:19:24.791Z,14.05
2023-02-13T02:22:19.040Z,14.73
2023-02-13T02:25:17.789Z,14.45
2023-02-13T02:27:59.998Z,15.82
2023-02-13T02:33:27.586Z,14.50
2023-02-13T02:36:12.805Z,15.40
2023-02-13T02:38:58.687Z,14.25
2023-02-13T02:41:46.371Z,15.18
2023-02-13T02:44:32.791Z,14.20
2023-02-13T02:47:51.452Z,13.52
2023-02-13T02:50:40.251Z,14.60
2023-02-13T02:53:17.628Z,14.07
2023-02-13T02:55:48.277Z,15.45
2023-02-13T02:58:45.294Z,14.43
2023-02-13T03:01:34.589Z,15.68
2023-02-13T03:04:21.902Z,14.55
2023-02-13T03:07:03.907Z,16.30
2023-02-13T03:09:54.510Z,15.05
2023-02-13T03:12:42.100Z,14.43
2023-02-13T03:15:09.585Z,16.38
2023-02-13T03:17:55.399Z,15.25
2023-02-13T03:20:55.744Z,14.00
2023-02-13T03:23:38.783Z,14.40
2023-02-13T03:26:33.221Z,14.43
2023-02-13T03:29:23.966Z,13.57
2023-02-13T03:32:01.420Z,12.98
2023-02-13T03:34:52.522Z,14.13
2023-02-13T03:37:45.361Z,13.18
2023-02-13T03:40:23.499Z,13.88
2023-02-13T03:42:58.491Z,13.27
2023-02-13T03:45:51.666Z,12.52
2023-02-13T03:48:42.159Z,13.68
2023-02-13T03:51:12.216Z,12.95
2023-02-13T03:53:42.473Z,12.77
2023-02-13T03:56:31.867Z,13.02
2023-02-13T03:59:16.229Z,11.98
2023-02-13T04:01:53.946Z,12.75
2023-02-13T04:04:27.701Z,11.60
2023-02-13T04:07:05.066Z,13.00
2023-02-13T04:09:35.676Z,12.18
2023-02-13T04:12:09.146Z,11.55
2023-02-13T04:14:52.882Z,14.32
2023-02-13T04:17:43.646Z,13.27
2023-02-13T04:20:11.264Z,11.35
2023-02-13T04:22:46.461Z,11.65
2023-02-13T04:25:15.257Z,13.18
2023-02-13T04:27:41.674Z,11.18
2023-02-13T04:30:09.194Z,12.57
2023-02-13T04:32:35.779Z,12.85
2023-02-13T04:35:02.212Z,10.85
2023-02-13T04:37:28.617Z,12.50
2023-02-13T04:39:55.008Z,11.93
2023-02-13T04:42:21.425Z,11.75
2023-02-13T04:44:47.973Z,12.20
2023-02-13T04:47:14.355Z,11.95
2023-02-13T04:49:40.744Z,12.48
2023-02-13T04:52:07.135Z,12.07
2023-02-13T04:54:33.543Z,14.02
2023-02-13T04:56:59.968Z,13.27
2023-02-13T04:59:26.368Z,12.35
2023-02-13T05:01:54.130Z,13.20
2023-02-13T05:04:20.631Z,13.43
2023-02-13T05:06:47.160Z,12.13
2023-02-13T05:09:13.614Z,12.93
2023-02-13T05:11:40.170Z,13.82
2023-02-13T05:14:06.566Z,13.75
2023-02-13T05:16:33.328Z,13.38
2023-02-13T05:18:59.913Z,17.17
2023-02-13T05:21:44.709Z,14.35
2023-02-13T05:24:11.541Z,14.82
2023-02-13T05:26:37.976Z,12.77
2023-02-13T05:29:19.774Z,16.08
2023-02-13T05:31:47.440Z,14.07
2023-02-13T05:34:13.964Z,15.07
2023-02-13T05:36:40.387Z,15.23
2023-02-13T05:39:06.972Z,14.95
2023-02-13T05:41:33.402Z,13.00
2023-02-13T05:43:59.803Z,13.23
2023-02-13T05:46:26.724Z,14.35
2023-02-13T05:48:53.490Z,13.82
2023-02-13T05:51:20.790Z,13.75
2023-02-13T05:53:47.234Z,13.88
2023-02-13T05:56:13.788Z,14.65
2023-02-13T05:58:40.198Z,13.85
2023-02-13T06:01:06.666Z,14.07
2023-02-13T06:03:33.301Z,14.75
2023-02-13T06:05:59.995Z,16.42
2023-02-13T06:08:26.402Z,14.15
2023-02-13T06:10:52.851Z,14.73
2023-02-13T06:13:19.443Z,15.10
2023-02-13T06:15:46.000Z,16.30
2023-02-13T06:18:12.411Z,16.08
2023-02-13T06:20:39.049Z,16.52
2023-02-13T06:23:05.578Z,15.30
2023-02-13T06:25:31.978Z,15.65
2023-02-13T06:27:58.448Z,20.30
2023-02-13T06:30:24.871Z,14.55
2023-02-13T06:32:51.387Z,16.45
2023-02-13T06:35:17.943Z,16.35
2023-02-13T06:37:44.911Z,16.58
2023-02-13T06:40:13.159Z,16.50
2023-02-13T06:42:39.863Z,18.40
2023-02-13T06:45:07.087Z,17.15
2023-02-13T06:47:33.469Z,18.80
2023-02-13T06:49:59.926Z,18.60
2023-02-13T06:52:26.467Z,18.48
2023-02-13T06:54:52.829Z,19.17
2023-02-13T06:57:19.278Z,18.73
2023-02-13T06:59:45.702Z,19.95
2023-02-13T07:02:13.040Z,17.85
2023-02-13T07:04:39.770Z,20.50
2023-02-13T07:07:06.293Z,17.85
2023-02-13T07:09:33.013Z,19.77
2023-02-13T07:12:03.198Z,17.35
2023-02-13T07:14:29.556Z,17.75
2023-02-13T07:16:55.939Z,20.13
2023-02-13T07:19:22.320Z,17.25
2023-02-13T07:21:48.990Z,18.80
2023-02-13T07:24:15.442Z,18.52
2023-02-13T07:26:42.068Z,19.95
2023-02-13T07:29:11.961Z,18.08
2023-02-13T07:31:39.669Z,18.83
2023-02-13T07:34:06.366Z,18.38
2023-02-13T07:36:32.817Z,20.13
2023-02-13T07:38:59.311Z,19.95
2023-02-13T07:41:26.719Z,20.65
2023-02-13T07:43:54.315Z,21.30
2023-02-13T07:46:20.779Z,15.95
2023-02-13T07:48:47.203Z,18.75
2023-02-13T07:51:14.166Z,19.25
2023-02-13T07:53:40.587Z,19.10
2023-02-13T07:56:07.948Z,19.85
2023-02-13T07:58:36.239Z,20.15
2023-02-13T08:01:11.002Z,19.35
2023-02-13T08:03:37.752Z,22.50
2023-02-13T08:06:05.787Z,19.73
2023-02-13T08:08:32.576Z,20.88
2023-02-13T08:11:31.247Z,20.50
2023-02-13T08:13:57.639Z,21.33
2023-02-13T08:16:24.151Z,19.90
2023-02-13T08:18:50.549Z,20.77
2023-02-13T08:21:16.924Z,20.67
2023-02-13T08:23:43.413Z,20.88
2023-02-13T08:26:10.963Z,20.33
2023-02-13T08:28:37.878Z,18.02
2023-02-13T08:31:12.787Z,21.23
2023-02-13T08:33:41.272Z,19.88
2023-02-13T08:36:08.379Z,23.75
2023-02-13T08:38:34.901Z,20.65
2023-02-13T08:41:01.272Z,18.48
2023-02-13T08:43:27.643Z,22.27
2023-02-13T08:45:54.122Z,21.38
2023-02-13T08:48:20.533Z,22.95
2023-02-13T08:50:46.966Z,20.73
2023-02-13T08:53:13.383Z,20.23
2023-02-13T08:55:39.756Z,20.77
2023-02-13T08:58:06.201Z,18.98
2023-02-13T09:00:32.756Z,19.50
2023-02-13T09:03:03.076Z,19.85
2023-02-13T09:05:31.590Z,17.08
2023-02-13T09:08:03.472Z,20.05
2023-02-13T09:10:31.826Z,19.38
2023-02-13T09:12:58.452Z,17.92
2023-02-13T09:15:24.876Z,17.33
2023-02-13T09:17:51.335Z,17.92
2023-02-13T09:20:17.802Z,19.05
2023-02-13T09:22:44.593Z,20.42
2023-02-13T09:25:10.965Z,20.60
2023-02-13T09:27:39.073Z,20.35
2023-02-13T09:30:23.182Z,17.90
2023-02-13T09:32:52.018Z,16.83
2023-02-13T09:35:19.226Z,16.10
2023-02-13T09:37:46.011Z,16.63
2023-02-13T09:40:28.378Z,18.02
2023-02-13T09:43:07.468Z,16.27
2023-02-13T09:45:34.563Z,19.02
2023-02-13T09:48:01.128Z,20.95
2023-02-13T09:50:33.364Z,20.45
2023-02-13T09:53:01.199Z,24.38
2023-02-13T09:55:54.184Z,21.30
2023-02-13T09:58:32.782Z,18.40
2023-02-13T10:01:02.008Z,16.70
2023-02-13T10:03:42.649Z,19.00
2023-02-13T10:06:53.485Z,16.70
2023-02-13T10:09:33.481Z,19.52
2023-02-13T10:12:16.712Z,19.10
2023-02-13T10:14:54.545Z,17.85
2023-02-13T10:17:34.200Z,17.92
2023-02-13T10:20:08.435Z,21.00
2023-02-13T10:22:51.574Z,16.75
2023-02-13T10:25:25.196Z,19.35
2023-02-13T10:28:00.693Z,17.38
2023-02-13T10:30:33.036Z,16.05
2023-02-13T10:33:20.262Z,18.00
2023-02-13T10:36:11.549Z,17.38
2023-02-13T10:39:07.119Z,17.83
2023-02-13T10:41:42.938Z,16.48
2023-02-13T10:44:12.046Z,15.77
2023-02-13T10:47:08.804Z,15.90
2023-02-13T10:49:44.236Z,19.15
2023-02-13T10:52:39.608Z,17.77
2023-02-13T10:55:22.598Z,15.90
2023-02-13T10:57:59.179Z,15.52
2023-02-13T11:00:34.780Z,13.68
2023-02-13T11:03:01.661Z,16.23
2023-02-13T11:05:38.444Z,14.90
2023-02-13T11:08:29.086Z,15.13
2023-02-13T11:10:55.461Z,14.25
2023-02-13T11:13:25.023Z,12.55
2023-02-13T11:16:02.306Z,14.90
2023-02-13T11:18:33.983Z,12.02
2023-02-13T11:21:16.970Z,15.00
2023-02-13T11:23:52.298Z,11.13
2023-02-13T11:26:24.442Z,12.73
2023-02-13T11:28:55.895Z,13.02
2023-02-13T11:31:34.667Z,12.10
2023-02-13T11:34:18.669Z,13.60
2023-02-13T11:36:45.119Z,12.57
2023-02-13T11:39:23.026Z,12.45
2023-02-13T11:41:52.695Z,10.77
2023-02-13T11:44:25.299Z,11.65
2023-02-13T11:46:57.152Z,10.15
2023-02-13T11:49:26.043Z,10.93
2023-02-13T11:52:02.300Z,10.63
2023-02-13T11:54:32.671Z,11.85
2023-02-13T11:57:36.606Z,13.50
2023-02-13T12:00:39.837Z,10.88
2023-02-13T12:03:31.013Z,10.17
2023-02-13T12:06:05.557Z,10.98
2023-02-13T12:08:38.647Z,11.45
2023-02-13T12:11:36.314Z,12.20
2023-02-13T12:14:03.147Z,11.68
2023-02-13T12:16:43.051Z,10.50
2023-02-13T12:19:17.469Z,9.48
2023-02-13T12:22:11.872Z,8.88
2023-02-13T12:25:09.278Z,8.80
2023-02-13T12:27:51.690Z,7.75
2023-02-13T12:30:36.543Z,8.18
2023-02-13T12:33:30.106Z,7.95
2023-02-13T12:36:23.658Z,6.78
2023-02-13T12:39:25.714Z,12.15
2023-02-13T12:42:06.866Z,7.28
2023-02-13T12:44:51.607Z,8.40
2023-02-13T12:47:21.219Z,11.25
2023-02-13T12:49:59.237Z,9.23
2023-02-13T12:52:31.436Z,9.07
2023-02-13T12:55:20.001Z,7.30
2023-02-13T12:57:55.492Z,8.95
2023-02-13T13:00:40.573Z,7.35
2023-02-13T13:03:25.661Z,6.65
2023-02-13T13:06:12.198Z,8.88
2023-02-13T13:09:06.264Z,9.45
2023-02-13T13:14:38.488Z,6.80
2023-02-13T13:20:08.820Z,6.20
2023-02-13T13:22:45.746Z,6.25
2023-02-13T13:25:21.270Z,6.00
2023-02-13T13:27:53.035Z,5.32
2023-02-13T13:30:22.578Z,6.82
2023-02-13T13:32:55.888Z,6.65
2023-02-13T13:35:22.498Z,4.90
2023-02-13T13:38:02.441Z,6.45
2023-02-13T13:40:42.922Z,6.63
2023-02-13T13:43:22.901Z,5.68
2023-02-13T13:46:08.859Z,7.68
2023-02-13T13:48:53.062Z,6.03
2023-02-13T13:51:20.218Z,7.20
2023-02-13T13:54:15.775Z,6.25
2023-02-13T13:56:54.333Z,6.93
2023-02-13T13:59:51.334Z,5.78
2023-02-13T14:02:17.722Z,5.00
2023-02-13T14:05:18.552Z,5.88
2023-02-13T14:07:47.472Z,5.75
2023-02-13T14:10:26.104Z,6.97
2023-02-13T14:12:55.556Z,6.10
2023-02-13T14:15:34.623Z,5.80
2023-02-13T14:18:07.887Z,8.48
2023-02-13T14:20:38.656Z,7.78
2023-02-13T14:23:49.544Z,6.40
2023-02-13T14:26:15.868Z,5.70
2023-02-13T14:29:11.684Z,7.57
2023-02-13T14:31:52.605Z,6.65
2023-02-13T14:34:26.860Z,5.57
2023-02-13T14:37:20.616Z,7.10
2023-02-13T14:40:18.284Z,7.60
2023-02-13T14:42:48.064Z,8.52
2023-02-13T14:45:22.892Z,8.98
2023-02-13T14:47:55.318Z,7.60
2023-02-13T14:50:34.716Z,7.25
2023-02-13T14:53:16.814Z,8.77
2023-02-13T14:55:46.183Z,9.25
2023-02-13T14:58:16.127Z,7.25
2023-02-13T15:01:00.912Z,7.45
2023-02-13T15:03:40.969Z,8.18
2023-02-13T15:06:23.757Z,7.80
2023-02-13T15:08:52.765Z,9.07
2023-02-13T15:11:37.611Z,8.68
2023-02-13T15:14:25.926Z,9.30
2023-02-13T15:16:57.144Z,8.70
2023-02-13T15:19:24.963Z,9.50
2023-02-13T15:22:03.382Z,9.75
2023-02-13T15:24:37.659Z,8.25
2023-02-13T15:27:07.199Z,8.57
2023-02-13T15:29:47.861Z,9.20
2023-02-13T15:32:28.204Z,8.65
2023-02-13T15:34:55.279Z,9.70
2023-02-13T15:37:28.628Z,9.98
2023-02-13T15:39:55.099Z,10.23
2023-02-13T15:42:21.751Z,9.88
2023-02-13T15:44:53.979Z,9.82
2023-02-13T15:47:28.451Z,8.38
2023-02-13T15:49:55.371Z,9.27
2023-02-13T15:52:24.683Z,9.55
2023-02-13T15:54:54.238Z,9.15
2023-02-13T15:57:23.164Z,10.40
2023-02-13T15:59:50.527Z,9.20
2023-02-13T16:02:29.870Z,10.30
2023-02-13T16:04:57.436Z,10.10
2023-02-13T16:07:23.899Z,11.18
2023-02-13T16:09:50.333Z,12.02
2023-02-13T16:12:25.700Z,13.30
2023-02-13T16:14:59.813Z,12.18
2023-02-13T16:17:33.239Z,10.55
2023-02-13T16:22:38.713Z,10.63
2023-02-13T16:25:14.051Z,9.73
2023-02-13T16:27:46.727Z,9.63
2023-02-13T16:30:23.428Z,11.43
2023-02-13T16:32:49.946Z,10.90
2023-02-13T16:35:28.834Z,11.55
2023-02-13T16:38:00.429Z,14.48
2023-02-13T16:40:40.920Z,13.70
2023-02-13T16:43:33.439Z,16.95
2023-02-13T16:46:13.027Z,16.90
2023-02-13T16:48:39.813Z,18.98
2023-02-13T16:51:06.676Z,22.15
2023-02-13T16:53:34.350Z,18.35
2023-02-13T16:56:07.509Z,21.65
2023-02-13T16:58:34.056Z,21.13
2023-02-13T17:01:02.895Z,21.70
2023-02-13T17:03:32.497Z,18.65
2023-02-13T17:06:02.677Z,20.08
2023-02-13T17:08:31.448Z,20.05
2023-02-13T17:11:08.210Z,19.58
2023-02-13T17:13:34.883Z,19.17
2023-02-13T17:16:01.287Z,20.45
2023-02-13T17:18:28.089Z,18.23
2023-02-13T17:20:54.615Z,19.35
2023-02-13T17:23:24.470Z,19.23
2023-02-13T17:25:53.555Z,15.82
2023-02-13T17:28:24.054Z,16.73
2023-02-13T17:30:53.947Z,18.58
2023-02-13T17:33:31.461Z,17.20
2023-02-13T17:35:58.113Z,18.13
2023-02-13T17:38:24.642Z,19.38
2023-02-13T17:40:51.729Z,20.27
2023-02-13T17:43:19.525Z,15.60
2023-02-13T17:45:46.832Z,18.80
2023-02-13T17:48:13.849Z,16.85
2023-02-13T17:50:40.284Z,21.55
2023-02-13T17:53:16.389Z,17.08
2023-02-13T17:55:43.081Z,19.88
2023-02-13T17:58:09.461Z,18.70
2023-02-13T18:00:36.007Z,18.10
2023-02-13T18:03:03.020Z,21.88
2023-02-13T18:05:31.410Z,20.67
2023-02-13T18:07:57.997Z,22.38
2023-02-13T18:10:27.528Z,19.98
2023-02-13T18:12:56.516Z,23.13
2023-02-13T18:15:24.176Z,16.33
2023-02-13T18:17:50.594Z,20.67
2023-02-13T18:20:20.542Z,27.10
2023-02-13T18:22:50.309Z,23.05
2023-02-13T18:25:18.007Z,22.85
2023-02-13T18:27:44.583Z,18.20
2023-02-13T18:30:14.048Z,19.83
2023-02-13T18:32:40.572Z,22.35
2023-02-13T18:35:08.132Z,23.23
2023-02-13T18:37:35.244Z,24.95
2023-02-13T18:40:01.745Z,27.48
2023-02-13T18:42:28.251Z,22.77
2023-02-13T18:44:54.661Z,24.10
2023-02-13T18:47:21.073Z,23.65
2023-02-13T18:49:47.471Z,22.00
2023-02-13T18:52:14.063Z,25.00
2023-02-13T18:54:40.485Z,22.65
2023-02-13T18:57:06.988Z,24.73
2023-02-13T18:59:34.000Z,22.60
2023-02-13T19:02:02.102Z,22.92
2023-02-13T19:04:29.615Z,26.15
2023-02-13T19:06:55.995Z,22.98
2023-02-13T19:09:22.478Z,25.75
2023-02-13T19:11:48.942Z,24.30
2023-02-13T19:14:15.761Z,22.77
2023-02-13T19:16:42.350Z,25.60
2023-02-13T19:19:10.397Z,26.23
2023-02-13T19:21:38.480Z,22.40
2023-02-13T19:24:08.721Z,24.83
2023-02-13T19:26:36.144Z,22.88
2023-02-13T19:29:03.230Z,24.25
2023-02-13T19:31:32.233Z,27.35
2023-02-13T19:34:00.313Z,25.42
2023-02-13T19:36:28.760Z,25.95
2023-02-13T19:38:57.592Z,27.45
2023-02-13T19:41:24.395Z,26.85
2023-02-13T19:43:51.248Z,27.00
2023-02-13T19:46:20.377Z,24.80
2023-02-13T19:48:46.889Z,31.30
2023-02-13T19:51:15.763Z,27.60
2023-02-13T19:53:42.684Z,23.02
2023-02-13T19:56:09.685Z,27.00
2023-02-13T19:58:40.350Z,24.73
2023-02-13T20:01:08.895Z,26.25
2023-02-13T20:03:35.650Z,28.42
2023-02-13T20:06:08.654Z,21.95
2023-02-13T20:08:35.353Z,23.05
2023-02-13T20:11:01.903Z,26.60
2023-02-13T20:13:28.404Z,22.95
2023-02-13T20:15:55.157Z,25.27
2023-02-13T20:18:21.722Z,23.52
2023-02-13T20:20:48.384Z,26.90
2023-02-13T20:23:16.816Z,28.08
2023-02-13T20:25:43.570Z,25.48
2023-02-13T20:28:11.442Z,27.02
2023-02-13T20:30:42.579Z,25.83
2023-02-13T20:33:09.412Z,25.20
2023-02-13T20:35:36.328Z,25.67
2023-02-13T20:38:03.957Z,24.23
2023-02-13T20:40:30.580Z,26.80
2023-02-13T20:42:57.464Z,25.70
2023-02-13T20:45:24.185Z,24.10
2023-02-13T20:47:50.645Z,23.90
2023-02-13T20:50:17.147Z,24.75
2023-02-13T20:52:43.588Z,25.45
2023-02-13T20:55:10.014Z,28.05
2023-02-13T20:57:36.434Z,29.98
2023-02-13T21:00:06.020Z,29.15
2023-02-13T21:02:32.563Z,29.35
2023-02-13T21:04:58.961Z,27.88
2023-02-13T21:07:25.406Z,28.23
2023-02-13T21:09:51.793Z,26.45
2023-02-13T21:12:18.270Z,25.13
2023-02-13T21:14:44.704Z,24.17
2023-02-13T21:17:11.131Z,25.02
2023-02-13T21:19:37.612Z,23.10
2023-02-13T21:22:13.256Z,23.48
2023-02-13T21:24:41.357Z,22.23
2023-02-13T21:27:08.890Z,23.13
2023-02-13T21:29:35.774Z,25.50
2023-02-13T21:32:03.250Z,23.10
2023-02-13T21:34:29.954Z,20.50
2023-02-13T21:36:56.318Z,18.40
2023-02-13T21:39:23.088Z,22.10
2023-02-13T21:41:49.521Z,16.58
2023-02-13T21:44:16.425Z,15.73
2023-02-13T21:46:43.871Z,15.10
2023-02-13T21:49:12.769Z,13.88
2023-02-13T21:51:39.392Z,13.10
2023-02-13T21:54:05.873Z,15.18
2023-02-13T21:56:35.316Z,13.85
2023-02-13T21:59:02.174Z,13.38
2023-02-13T22:01:44.210Z,12.00
2023-02-13T22:04:10.732Z,13.60
2023-02-13T22:06:38.931Z,10.68
2023-02-13T22:09:11.390Z,10.88
2023-02-13T22:11:38.734Z,10.68
2023-02-13T22:14:07.653Z,9.60
2023-02-13T22:16:36.956Z,9.70
2023-02-13T22:19:05.249Z,9.63
2023-02-13T22:21:33.183Z,9.50
2023-02-13T22:23:59.902Z,9.43
2023-02-13T22:26:28.914Z,9.13
2023-02-13T22:29:02.247Z,10.05
2023-02-13T22:31:28.976Z,7.93
2023-02-13T22:34:05.351Z,9.90
2023-02-13T22:36:34.228Z,9.52
2023-02-13T22:39:00.802Z,8.60
2023-02-13T22:41:27.811Z,9.48
2023-02-13T22:43:54.460Z,7.88
2023-02-13T22:46:23.726Z,9.57
2023-02-13T22:48:54.102Z,9.00
2023-02-13T22:51:24.082Z,11.75
2023-02-13T22:53:55.100Z,12.07
2023-02-13T22:56:22.764Z,9.15
2023-02-13T22:58:49.141Z,9.63
2023-02-13T23:01:19.398Z,9.45
2023-02-13T23:03:46.128Z,8.85
2023-02-13T23:06:14.779Z,9.88
2023-02-13T23:08:41.955Z,9.27
2023-02-13T23:11:29.959Z,8.55
2023-02-13T23:13:56.728Z,7.72
2023-02-13T23:16:23.524Z,7.80
2023-02-13T23:18:52.136Z,8.55
2023-02-13T23:21:19.050Z,10.02
2023-02-13T23:23:45.478Z,9.85
2023-02-13T23:26:11.942Z,8.85
2023-02-13T23:28:38.538Z,9.70
2023-02-13T23:31:05.455Z,8.80
2023-02-13T23:33:31.987Z,9.27
2023-02-13T23:35:58.464Z,8.75
2023-02-13T23:38:25.078Z,8.73
2023-02-13T23:40:51.550Z,8.43
2023-02-13T23:43:18.146Z,10.32
2023-02-13T23:45:44.596Z,9.10
2023-02-13T23:48:12.639Z,9.35
2023-02-13T23:50:39.850Z,7.35
2023-02-13T23:53:06.345Z,9.73
2023-02-13T23:55:32.821Z,7.72
2023-02-13T23:58:00.103Z,7.88
